createdAt,value
2022-10-04T00:03:07.411Z,94340.98
2022-10-04T00:11:35.238Z,94348.25
2022-10-04T00:19:59.301Z,94343.75
2022-10-04T00:28:26.839Z,94249.77
2022-10-04T00:36:55.474Z,94081.22
2022-10-04T00:45:34.259Z,94009.89
2022-10-04T00:54:12.242Z,94020.83
2022-10-04T01:02:59.193Z,94067.09
2022-10-04T01:11:25.069Z,94130.12
2022-10-04T01:19:53.977Z,94176.34
2022-10-04T01:28:17.213Z,94215.13
2022-10-04T01:36:41.429Z,94238.70
2022-10-04T01:45:29.187Z,94236.38
2022-10-04T01:53:59.437Z,94230.58
2022-10-04T02:02:37.035Z,94228.64
2022-10-04T02:11:05.141Z,94232.41
2022-10-04T02:19:40.974Z,94238.31
2022-10-04T02:28:05.558Z,94237.52
2022-10-04T02:36:30.474Z,94240.63
2022-10-04T02:45:02.896Z,94212.91
2022-10-04T02:53:45.138Z,94195.27
2022-10-04T03:02:30.151Z,94183.78
2022-10-04T03:10:54.093Z,94182.20
2022-10-04T03:19:19.478Z,94173.38
2022-10-04T03:27:44.825Z,94155.95
2022-10-04T03:36:18.771Z,94140.27
2022-10-04T03:44:45.216Z,94125.83
2022-10-04T03:53:22.334Z,94116.03
2022-10-04T04:02:17.592Z,94101.54
2022-10-04T04:10:50.767Z,94087.59
2022-10-04T04:19:17.582Z,94099.33
2022-10-04T04:27:43.828Z,94127.30
2022-10-04T04:36:11.751Z,94130.55
2022-10-04T04:44:35.308Z,94145.53
2022-10-04T04:53:10.279Z,94177.64
2022-10-04T05:01:44.085Z,94206.17
2022-10-04T05:10:32.351Z,94228.51
2022-10-04T05:19:03.599Z,94241.09
2022-10-04T05:27:31.216Z,94255.86
2022-10-04T05:36:13.814Z,94283.77
2022-10-04T05:44:56.294Z,94317.40
2022-10-04T05:53:36.876Z,94343.69
2022-10-04T06:02:20.689Z,94378.16
2022-10-04T06:11:12.023Z,94425.27
2022-10-04T06:19:47.556Z,94453.30
2022-10-04T06:28:16.061Z,94469.75
2022-10-04T06:37:15.691Z,94476.82
2022-10-04T06:45:59.909Z,94479.23
2022-10-04T06:54:23.238Z,94495.65
2022-10-04T07:02:45.966Z,94540.39
2022-10-04T07:11:26.807Z,94583.61
2022-10-04T07:19:54.850Z,94641.58
2022-10-04T07:28:44.793Z,94733.33
2022-10-04T07:37:14.714Z,94792.26
2022-10-04T07:45:41.499Z,94797.30
2022-10-04T07:54:27.972Z,94835.30
2022-10-04T08:03:29.969Z,94834.98
2022-10-04T08:12:03.495Z,94823.45
2022-10-04T08:20:35.595Z,94836.02
2022-10-04T08:29:16.803Z,94920.44
2022-10-04T08:38:08.592Z,95101.49
2022-10-04T08:46:53.790Z,95337.58
2022-10-04T08:55:25.655Z,95545.00
2022-10-04T09:04:07.123Z,95628.84
2022-10-04T09:12:35.627Z,95611.11
2022-10-04T09:21:11.475Z,95573.02
2022-10-04T09:29:53.275Z,95563.67
2022-10-04T09:39:05.919Z,95575.85
2022-10-04T09:48:01.093Z,95578.13
2022-10-04T09:56:35.705Z,95604.35
2022-10-04T10:05:15.023Z,95576.86
2022-10-04T10:13:50.716Z,95491.42
2022-10-04T10:22:16.426Z,95444.70
2022-10-04T10:31:09.130Z,95454.11
2022-10-04T10:40:06.725Z,95473.85
2022-10-04T10:48:51.533Z,95531.21
2022-10-04T10:57:23.595Z,95694.64
2022-10-04T11:06:07.782Z,95705.28
2022-10-04T11:15:26.591Z,95693.54
2022-10-04T11:24:08.138Z,95718.73
2022-10-04T11:32:47.828Z,95770.74
2022-10-04T11:41:25.702Z,95851.19
2022-10-04T11:49:57.689Z,95857.77
2022-10-04T11:58:28.564Z,95871.38
2022-10-04T12:07:27.802Z,95828.82
2022-10-04T12:16:13.350Z,95814.18
2022-10-04T12:24:59.624Z,95822.78
2022-10-04T12:33:25.907Z,95809.64
2022-10-04T12:42:17.142Z,95808.84
2022-10-04T12:50:39.893Z,95795.95
2022-10-04T12:59:16.110Z,95712.13
2022-10-04T13:07:56.443Z,95637.64
2022-10-04T13:25:45.785Z,95685.96
2022-10-04T13:34:24.060Z,95719.29
2022-10-04T13:43:09.712Z,95708.71
2022-10-04T13:51:39.560Z,95692.72
2022-10-04T14:00:05.583Z,95681.41
2022-10-04T14:08:54.867Z,95681.23
2022-10-04T14:17:42.245Z,95669.50
2022-10-04T14:26:07.249Z,95634.64
2022-10-04T14:35:03.409Z,95615.89
2022-10-04T14:43:52.557Z,95625.16
2022-10-04T14:52:32.456Z,95640.63
2022-10-04T15:01:03.318Z,95609.53
2022-10-04T15:09:50.657Z,95566.27
2022-10-04T15:18:31.389Z,95532.76
2022-10-04T15:27:16.108Z,95547.29
2022-10-04T15:35:52.194Z,95528.52
2022-10-04T15:44:44.346Z,95446.20
2022-10-04T15:53:25.503Z,95358.37
2022-10-04T16:01:52.228Z,95265.70
2022-10-04T16:11:03.757Z,95197.11
2022-10-04T16:20:03.863Z,95118.55
2022-10-04T16:28:36.622Z,95008.52
2022-10-04T16:37:03.148Z,94925.96
2022-10-04T16:45:35.167Z,94895.64
2022-10-04T16:54:20.689Z,94889.15
2022-10-04T17:03:01.311Z,94855.61
2022-10-04T17:11:36.886Z,94814.31
2022-10-04T17:20:11.865Z,94777.00
2022-10-04T17:28:52.692Z,94703.56
2022-10-04T17:37:30.633Z,94639.78
2022-10-04T17:46:05.645Z,94577.23
2022-10-04T17:55:10.795Z,94513.59
2022-10-04T18:03:52.286Z,94464.29
2022-10-04T18:12:24.168Z,94415.02
2022-10-04T18:21:17.895Z,94332.44
2022-10-04T18:30:04.732Z,94267.34
2022-10-04T18:38:33.632Z,94221.23
2022-10-04T18:47:03.408Z,94154.39
2022-10-04T18:55:46.169Z,94100.94
2022-10-04T19:04:20.490Z,94085.57
2022-10-04T19:13:03.907Z,94058.70
2022-10-04T19:21:29.535Z,94021.59
2022-10-04T19:30:12.846Z,93995.09
2022-10-04T19:39:03.257Z,93950.40
2022-10-04T19:47:38.833Z,93920.83
2022-10-04T19:56:05.955Z,93900.11
2022-10-04T20:04:35.365Z,93861.00
2022-10-04T20:13:26.241Z,93826.05
2022-10-04T20:21:49.979Z,93796.98
2022-10-04T20:30:16.608Z,93780.08
2022-10-04T20:39:02.194Z,93765.46
2022-10-04T20:47:46.840Z,93731.22
2022-10-04T20:56:21.277Z,93711.55
2022-10-04T21:04:50.349Z,93698.45
2022-10-04T21:13:42.263Z,93674.26
2022-10-04T21:22:08.197Z,93655.61
2022-10-04T21:30:31.167Z,93623.62
2022-10-04T21:38:56.043Z,93601.98
2022-10-04T21:47:23.539Z,93578.15
2022-10-04T21:55:47.020Z,93540.16
2022-10-04T22:04:09.986Z,93509.84
2022-10-04T22:12:33.012Z,93485.61
2022-10-04T22:20:56.048Z,93449.51
2022-10-04T22:29:19.319Z,93405.90
2022-10-04T22:37:43.630Z,93320.33
2022-10-04T22:46:15.444Z,93255.73
2022-10-04T22:54:45.268Z,93188.90
2022-10-04T23:03:19.245Z,93126.07
2022-10-04T23:11:43.953Z,93065.63
2022-10-04T23:20:21.956Z,93002.64
2022-10-04T23:28:44.809Z,92965.98
2022-10-04T23:37:23.247Z,92929.75
2022-10-04T23:45:48.147Z,92910.79
2022-10-04T23:54:16.924Z,92895.67
